Time;durP1;ratioP1;P1;durP2;ratioP2;P2;SDS_P1;SDS_P2;PMS_P1;PMS_P2;Temp;Humidity;BMP_temperature;BMP_pressure;BME280_temperature;BME280_humidity;BME280_pressure;Samples;Min_cycle;Max_cycle;Signal;HPM_P1;HPM_P2
2022/07/09 00:00:45;;;;;;;3.23;1.60;;;16.30;99.40;;;17.16;100.00;99332.31;4927672;29;20462;-78
2022/07/09 00:03:15;;;;;;;3.70;1.70;;;16.20;99.70;;;17.12;100.00;99329.25;4926540;29;20911;-78
2022/07/09 00:05:46;;;;;;;5.00;1.90;;;16.20;99.70;;;17.10;100.00;99323.34;4926795;29;20485;-78
2022/07/09 00:08:16;;;;;;;2.00;1.80;;;16.10;99.60;;;17.05;100.00;99328.41;4926726;29;20463;-78
2022/07/09 00:10:46;;;;;;;3.17;2.17;;;16.10;99.70;;;17.02;100.00;99323.50;4927440;29;20478;-78
2022/07/09 00:13:16;;;;;;;4.77;2.03;;;16.00;99.90;;;17.01;100.00;99319.22;4925453;29;20481;-78
2022/07/09 00:15:45;;;;;;;8.23;2.20;;;16.00;99.50;;;16.94;100.00;99313.91;4929617;29;20478;-78
2022/07/09 00:18:16;;;;;;;5.37;2.30;;;16.00;99.70;;;16.90;100.00;99317.97;4928384;29;20965;-78
2022/07/09 00:20:46;;;;;;;3.70;1.83;;;15.90;99.90;;;16.88;100.00;99320.00;4926858;29;20517;-78
2022/07/09 00:23:15;;;;;;;2.40;1.77;;;15.90;99.90;;;16.84;100.00;99323.22;4928008;29;20930;-78
2022/07/09 00:25:46;;;;;;;4.70;2.70;;;16.00;99.70;;;16.80;100.00;99316.72;4927577;29;20458;-78
2022/07/09 00:28:15;;;;;;;2.50;2.10;;;15.90;99.80;;;16.78;100.00;99313.44;4924186;29;20884;-78
2022/07/09 00:30:46;;;;;;;4.47;2.53;;;15.80;99.80;;;16.74;100.00;99307.72;4927224;29;20463;-78
2022/07/09 00:33:16;;;;;;;6.20;2.47;;;15.70;99.90;;;16.71;100.00;99307.28;4927943;29;20522;-78
2022/07/09 00:35:46;;;;;;;2.70;1.50;;;15.90;99.70;;;16.68;100.00;99302.41;4925492;29;20466;-78
2022/07/09 00:38:16;;;;;;;1.87;1.67;;;15.80;99.80;;;16.63;100.00;99304.81;4926888;29;20969;-78
2022/07/09 00:40:46;;;;;;;4.40;1.77;;;15.80;99.60;;;16.60;100.00;99300.72;4924912;29;20887;-78
2022/07/09 00:43:21;;;;;;;4.83;2.10;;;15.70;99.90;;;16.56;100.00;99299.47;4926157;29;20959;-78
2022/07/09 00:45:52;;;;;;;2.90;1.90;;;15.60;99.90;;;16.51;100.00;99302.69;4925590;29;20469;-78
2022/07/09 00:48:21;;;;;;;2.30;1.97;;;15.50;99.90;;;16.50;100.00;99306.34;4925707;29;21645;-78
2022/07/09 00:50:55;;;;;;;3.23;2.13;;;15.50;99.90;;;16.54;100.00;99306.75;4926782;29;20485;-79
2022/07/09 00:53:27;;;;;;;3.40;2.40;;;15.50;99.90;;;16.49;100.00;99298.59;4926588;29;20468;-78
2022/07/09 00:55:58;;;;;;;2.10;1.90;;;15.40;99.90;;;16.48;100.00;99302.28;4928896;29;20474;-78
2022/07/09 00:58:28;;;;;;;2.63;1.80;;;15.40;99.90;;;16.40;100.00;99300.59;4925903;29;20474;-78
2022/07/09 01:00:59;;;;;;;4.60;2.00;;;15.40;99.90;;;16.34;100.00;99296.09;4925509;29;20467;-78
2022/07/09 01:03:30;;;;;;;5.47;2.10;;;15.40;99.90;;;16.32;100.00;99292.81;4925901;29;20505;-78
2022/07/09 01:06:02;;;;;;;1.80;1.70;;;15.40;99.90;;;16.30;100.00;99296.66;4924052;29;20521;-78
2022/07/09 01:08:32;;;;;;;3.70;1.90;;;15.30;99.90;;;16.28;100.00;99291.56;4925040;29;20489;-78
2022/07/09 01:11:04;;;;;;;4.73;2.13;;;15.30;99.90;;;16.25;100.00;99294.59;4926525;29;20553;-77
2022/07/09 01:13:34;;;;;;;3.83;1.87;;;15.30;99.90;;;16.24;100.00;99290.34;4927071;29;20474;-78
2022/07/09 01:16:04;;;;;;;2.40;2.03;;;15.30;99.90;;;16.18;100.00;99290.25;4928218;29;20466;-77
2022/07/09 01:18:35;;;;;;;1.80;1.60;;;15.20;99.90;;;16.15;100.00;99291.47;4928502;29;20498;-78
2022/07/09 01:21:09;;;;;;;5.47;2.00;;;15.20;99.90;;;16.10;100.00;99299.16;4928260;29;20482;-78
2022/07/09 01:23:39;;;;;;;5.67;2.20;;;15.10;99.90;;;16.07;100.00;99281.03;4925669;29;20489;-77
2022/07/09 01:26:09;;;;;;;3.63;2.27;;;15.10;99.90;;;16.07;100.00;99286.31;4928149;29;20467;-77
2022/07/09 01:28:38;;;;;;;2.90;2.03;;;15.10;99.90;;;16.04;100.00;99282.25;4924163;29;20478;-78
2022/07/09 01:31:08;;;;;;;4.43;2.20;;;15.10;99.90;;;16.01;100.00;99281.81;4926477;29;20467;-78
2022/07/09 01:33:38;;;;;;;2.40;2.07;;;15.10;99.90;;;15.98;100.00;99277.75;4927064;29;20475;-78
2022/07/09 01:36:09;;;;;;;3.03;1.90;;;15.10;99.90;;;15.96;100.00;99276.31;4925734;29;20458;-78
2022/07/09 01:38:38;;;;;;;4.27;2.00;;;15.00;99.90;;;15.93;100.00;99271.41;4929034;29;20474;-78
2022/07/09 01:41:09;;;;;;;2.53;1.90;;;15.00;99.90;;;15.87;100.00;99266.88;4923109;29;20498;-79
2022/07/09 01:43:39;;;;;;;3.03;2.10;;;14.80;99.90;;;15.88;100.00;99263.25;4924661;29;20507;-78
2022/07/09 01:46:10;;;;;;;5.17;1.90;;;14.80;99.90;;;15.86;100.00;99271.34;4928497;29;20532;-78
2022/07/09 01:48:42;;;;;;;3.80;1.93;;;14.90;99.90;;;15.85;100.00;99274.19;4924826;29;20462;-77
2022/07/09 01:51:15;;;;;;;2.20;1.83;;;14.90;99.90;;;15.81;100.00;99275.56;4928235;29;20958;-78
2022/07/09 01:53:46;;;;;;;2.30;2.03;;;14.90;99.90;;;15.77;100.00;99272.50;4928260;29;20470;-78
2022/07/09 01:56:16;;;;;;;3.10;1.60;;;14.80;99.90;;;15.76;100.00;99277.97;4926204;29;20494;-78
2022/07/09 01:58:46;;;;;;;3.93;2.13;;;14.80;99.90;;;15.71;100.00;99272.44;4925570;29;20463;-78
2022/07/09 02:01:17;;;;;;;3.93;1.73;;;14.80;99.90;;;15.71;100.00;99273.25;4924915;29;20467;-77
2022/07/09 02:03:46;;;;;;;1.53;1.43;;;14.70;99.90;;;15.71;100.00;99267.16;4925128;29;20501;-78
2022/07/09 02:06:17;;;;;;;2.10;1.57;;;14.70;99.90;;;15.69;100.00;99266.53;4924744;29;20467;-78
2022/07/09 02:08:47;;;;;;;2.10;1.90;;;14.70;99.90;;;15.70;100.00;99254.97;4925491;29;20563;-78
2022/07/09 02:11:17;;;;;;;2.87;1.73;;;14.70;99.90;;;15.67;100.00;99260.63;4926886;29;20470;-78
2022/07/09 02:13:47;;;;;;;2.20;1.83;;;14.70;99.90;;;15.65;100.00;99262.66;4926736;29;20455;-77
2022/07/09 02:16:17;;;;;;;3.27;1.80;;;14.70;99.90;;;15.60;100.00;99264.03;4924750;29;20478;-77
2022/07/09 02:18:47;;;;;;;5.53;1.73;;;14.70;99.90;;;15.56;100.00;99248.75;4930113;29;20450;-78
2022/07/09 02:21:20;;;;;;;2.50;1.90;;;14.60;99.90;;;15.52;100.00;99248.31;4928028;29;20519;-78
2022/07/09 02:23:52;;;;;;;4.43;2.07;;;14.60;99.90;;;15.51;100.00;99249.34;4925970;29;20498;-77
2022/07/09 02:26:22;;;;;;;3.70;2.20;;;14.50;99.90;;;15.47;100.00;99245.41;4926829;29;20469;-78
2022/07/09 02:28:53;;;;;;;3.30;2.17;;;14.60;99.90;;;15.44;100.00;99256.34;4929670;29;20451;-78
2022/07/09 02:31:24;;;;;;;2.33;1.80;;;14.50;99.90;;;15.43;100.00;99256.53;4931788;28;20949;-78
2022/07/09 02:33:54;;;;;;;4.30;2.37;;;14.50;99.90;;;15.39;100.00;99245.53;4931314;29;20466;-78
2022/07/09 02:36:25;;;;;;;1.70;1.60;;;14.50;99.90;;;15.36;100.00;99243.28;4933313;29;20462;-78
2022/07/09 02:38:55;;;;;;;2.10;1.90;;;14.50;99.90;;;15.31;100.00;99250.91;4931650;29;20526;-78
2022/07/09 02:41:26;;;;;;;2.80;2.17;;;14.50;99.90;;;15.27;100.00;99244.38;4930367;29;20969;-78
2022/07/09 02:43:57;;;;;;;3.67;2.20;;;14.30;99.90;;;15.24;100.00;99243.97;4929174;29;21241;-78
2022/07/09 02:46:26;;;;;;;2.00;1.40;;;14.20;99.90;;;15.24;100.00;99244.75;4929468;29;20458;-78
2022/07/09 02:48:57;;;;;;;3.20;2.20;;;14.30;99.90;;;15.23;100.00;99242.34;4929862;29;20477;-77
2022/07/09 02:51:28;;;;;;;2.33;2.03;;;14.20;99.90;;;15.20;100.00;99242.72;4927103;29;20462;-78
2022/07/09 02:53:57;;;;;;;2.50;2.10;;;14.30;99.90;;;15.17;100.00;99249.16;4928968;29;20529;-78
2022/07/09 02:56:27;;;;;;;2.87;2.37;;;14.20;99.90;;;15.15;100.00;99243.25;4929020;29;20466;-78
2022/07/09 02:58:58;;;;;;;2.37;2.07;;;14.30;99.90;;;15.12;100.00;99243.63;4928758;29;20605;-77
2022/07/09 03:01:27;;;;;;;3.20;1.97;;;14.20;99.90;;;15.14;100.00;99238.97;4928978;29;20467;-78
2022/07/09 03:03:56;;;;;;;3.53;1.87;;;14.10;99.90;;;15.16;100.00;99244.91;4927902;29;20511;-77
2022/07/09 03:06:28;;;;;;;4.00;2.00;;;14.20;99.90;;;15.15;100.00;99234.53;4929633;29;20466;-78
2022/07/09 03:08:58;;;;;;;3.20;1.80;;;14.20;99.90;;;15.11;100.00;99232.28;4929248;29;20569;-77
2022/07/09 03:11:28;;;;;;;3.80;2.10;;;14.20;99.90;;;15.11;100.00;99242.00;4929012;29;20490;-78
2022/07/09 03:13:58;;;;;;;2.80;2.10;;;14.10;99.90;;;15.13;100.00;99234.75;4928750;29;21402;-77
2022/07/09 03:16:29;;;;;;;3.40;2.10;;;14.10;99.90;;;15.11;100.00;99239.34;4928224;29;20501;-78
2022/07/09 03:19:00;;;;;;;2.17;1.83;;;14.10;99.90;;;15.08;100.00;99234.47;4930548;29;20486;-78
2022/07/09 03:21:31;;;;;;;1.67;1.57;;;14.10;99.90;;;15.06;100.00;99237.28;4930806;29;20486;-78
2022/07/09 03:24:01;;;;;;;5.13;1.80;;;14.00;99.90;;;15.04;100.00;99234.03;4928668;29;20549;-77
2022/07/09 03:26:32;;;;;;;3.17;2.00;;;14.00;99.90;;;15.02;100.00;99230.78;4930234;29;20462;-77
2022/07/09 03:29:01;;;;;;;2.43;1.60;;;14.00;99.90;;;15.00;100.00;99231.94;4929386;29;21015;-78
2022/07/09 03:31:32;;;;;;;2.10;1.90;;;14.00;99.90;;;14.98;100.00;99234.78;4928878;29;20475;-78
2022/07/09 03:34:02;;;;;;;2.03;1.83;;;14.00;99.90;;;14.97;100.00;99238.41;4925684;29;21000;-77
2022/07/09 03:36:33;;;;;;;2.07;1.87;;;13.90;99.90;;;14.97;100.00;99240.22;4928860;29;20521;-78
2022/07/09 03:39:04;;;;;;;3.30;1.93;;;13.90;99.90;;;14.95;100.00;99236.97;4928785;29;20912;-78
2022/07/09 03:41:33;;;;;;;2.50;2.10;;;14.00;99.90;;;14.97;100.00;99232.31;4924990;29;20467;-78
2022/07/09 03:44:05;;;;;;;3.17;2.00;;;14.00;99.90;;;14.98;100.00;99234.78;4924901;29;20497;-78
2022/07/09 03:46:35;;;;;;;15.57;2.10;;;14.00;99.90;;;14.98;100.00;99233.94;4926213;29;20463;-78
2022/07/09 03:49:04;;;;;;;2.40;2.20;;;14.00;99.90;;;14.94;100.00;99228.25;4927544;29;20510;-78
2022/07/09 03:51:35;;;;;;;3.87;2.00;;;14.00;99.90;;;14.93;100.00;99233.69;4927317;29;20458;-78
2022/07/09 03:54:04;;;;;;;4.00;1.97;;;14.00;99.90;;;14.92;100.00;99232.88;4927089;29;21013;-78
2022/07/09 03:56:34;;;;;;;1.80;1.70;;;13.90;99.90;;;14.92;100.00;99234.69;4928990;29;20467;-78
2022/07/09 03:59:03;;;;;;;2.13;1.70;;;13.90;99.90;;;14.89;100.00;99240.34;4927752;29;20485;-78
2022/07/09 04:01:36;;;;;;;2.30;1.83;;;14.00;99.90;;;14.87;100.00;99237.06;4927583;29;20483;-77
2022/07/09 04:04:06;;;;;;;2.37;2.17;;;14.00;99.90;;;14.85;100.00;99234.63;4927294;29;20532;-78
2022/07/09 04:06:37;;;;;;;6.77;2.70;;;13.90;99.90;;;14.86;100.00;99232.78;4928529;29;20470;-78
2022/07/09 04:09:09;;;;;;;2.40;1.90;;;13.90;99.90;;;14.86;100.00;99238.06;4927787;29;20876;-78
2022/07/09 04:11:38;;;;;;;3.87;2.20;;;13.90;99.90;;;14.86;100.00;99238.88;4928544;29;20569;-78
2022/07/09 04:14:09;;;;;;;2.70;2.17;;;13.90;99.90;;;14.88;100.00;99239.53;4910852;29;20478;-79
2022/07/09 04:16:39;;;;;;;2.07;1.80;;;13.90;99.90;;;14.90;100.00;99242.78;4926754;29;20877;-78
2022/07/09 04:19:09;;;;;;;2.10;1.67;;;13.90;99.90;;;14.92;100.00;99239.97;4925893;29;20474;-79
2022/07/09 04:21:40;;;;;;;3.13;2.10;;;13.90;99.90;;;14.93;100.00;99233.69;4927008;29;20517;-78
2022/07/09 04:24:11;;;;;;;2.33;2.13;;;13.90;99.90;;;14.91;100.00;99233.88;4925885;29;20560;-78
2022/07/09 04:26:42;;;;;;;2.40;1.90;;;13.90;99.90;;;14.93;100.00;99228.41;4928285;29;20541;-78
2022/07/09 04:29:12;;;;;;;1.80;1.70;;;14.00;99.90;;;14.95;100.00;99229.06;4927135;29;20466;-78
2022/07/09 04:31:41;;;;;;;2.50;1.90;;;14.00;99.90;;;14.94;100.00;99228.25;4927288;29;20497;-78
2022/07/09 04:34:11;;;;;;;6.13;2.50;;;14.00;99.90;;;14.90;100.00;99241.97;4927225;29;20892;-77
2022/07/09 04:36:42;;;;;;;5.73;2.07;;;13.90;99.90;;;14.91;100.00;99233.06;4924429;29;20469;-78
2022/07/09 04:39:12;;;;;;;1.73;1.63;;;13.90;99.90;;;14.92;100.00;99227.63;4926180;29;20893;-78
2022/07/09 04:41:42;;;;;;;3.03;2.03;;;13.90;99.90;;;14.95;100.00;99242.22;4925108;29;20470;-78
2022/07/09 04:44:15;;;;;;;4.10;3.07;;;13.90;99.90;;;14.95;100.00;99223.78;4926532;29;20574;-88
2022/07/09 04:46:45;;;;;;;3.33;1.80;;;14.00;99.90;;;14.95;100.00;99227.25;4929069;29;20455;-78
2022/07/09 04:49:16;;;;;;;2.80;1.77;;;14.00;99.90;;;14.99;100.00;99232.97;4921756;29;20478;-78
2022/07/09 04:51:48;;;;;;;3.20;2.07;;;14.00;99.90;;;15.02;100.00;99224.69;4925705;29;20487;-78
2022/07/09 04:54:18;;;;;;;2.47;2.20;;;14.10;99.90;;;15.01;100.00;99229.13;4928811;29;20553;-78
2022/07/09 04:56:49;;;;;;;2.23;2.00;;;14.10;99.90;;;15.04;100.00;99220.84;4926502;29;20466;-78
2022/07/09 04:59:21;;;;;;;2.20;2.00;;;14.10;99.90;;;15.07;100.00;99232.81;4910823;29;20501;-78
2022/07/09 05:01:53;;;;;;;6.73;2.03;;;14.10;99.90;;;15.08;100.00;99224.75;4924355;29;20902;-78
2022/07/09 05:04:24;;;;;;;2.60;1.93;;;14.10;99.90;;;15.11;100.00;99219.09;4926377;29;20501;-78
2022/07/09 05:06:58;;;;;;;4.80;2.40;;;14.10;99.90;;;15.15;100.00;99219.53;4924624;29;20466;-78
2022/07/09 05:09:28;;;;;;;2.07;1.87;;;14.20;99.90;;;15.20;100.00;99219.81;4925932;29;20466;-78
2022/07/09 05:11:59;;;;;;;2.60;1.90;;;14.20;99.90;;;15.26;100.00;99220.88;4925193;29;20501;-78
2022/07/09 05:14:30;;;;;;;2.60;2.00;;;14.30;99.90;;;15.29;100.00;99212.59;4928449;29;20843;-79
2022/07/09 05:17:03;;;;;;;3.73;1.70;;;14.30;99.90;;;15.31;100.00;99208.75;4925181;29;20497;-78
2022/07/09 05:19:32;;;;;;;2.20;1.90;;;14.40;99.90;;;15.35;100.00;99211.81;4910712;29;20474;-78
2022/07/09 05:22:05;;;;;;;2.90;1.97;;;14.40;99.90;;;15.39;100.00;99213.09;4908379;29;20533;-78
2022/07/09 05:24:36;;;;;;;6.33;2.63;;;14.50;99.90;;;15.43;100.00;99206.44;4929757;29;20493;-84
2022/07/09 05:27:09;;;;;;;5.97;3.67;;;14.50;99.90;;;15.46;100.00;99196.31;4925589;29;20846;-78
2022/07/09 05:29:39;;;;;;;2.90;1.90;;;14.50;99.90;;;15.51;100.00;99204.53;4928788;29;20458;-78
2022/07/09 05:32:09;;;;;;;5.57;2.47;;;14.60;99.90;;;15.56;100.00;99206.56;4927500;29;20478;-78
2022/07/09 05:34:38;;;;;;;3.40;2.23;;;14.60;99.90;;;15.58;100.00;99200.09;4923836;29;20477;-79
2022/07/09 05:37:12;;;;;;;6.00;2.53;;;14.70;99.90;;;15.61;100.00;99198.91;4896743;29;20553;-78
2022/07/09 05:39:43;;;;;;;7.70;2.10;;;14.70;99.90;;;15.66;100.00;99195.69;4911968;29;20776;-79
2022/07/09 05:42:12;;;;;;;3.60;2.67;;;14.70;99.90;;;15.71;100.00;99203.88;4925057;29;20474;-78
2022/07/09 05:44:42;;;;;;;2.30;1.87;;;14.80;99.90;;;15.75;100.00;99205.13;4924803;29;20883;-78
2022/07/09 05:47:15;;;;;;;3.17;1.87;;;14.80;99.90;;;15.78;100.00;99202.09;4923766;29;21377;-78
2022/07/09 05:49:45;;;;;;;2.20;1.73;;;14.80;99.90;;;15.83;100.00;99202.31;4925696;29;20470;-78
2022/07/09 05:52:17;;;;;;;2.90;1.80;;;14.80;99.90;;;15.88;100.00;99205.22;4925665;29;20477;-78
2022/07/09 05:54:48;;;;;;;5.50;1.90;;;14.90;99.90;;;15.92;100.00;99190.63;4924462;29;20573;-78
2022/07/09 05:57:18;;;;;;;2.60;2.03;;;15.00;99.90;;;15.97;100.00;99202.22;4925032;29;20486;-78
2022/07/09 05:59:49;;;;;;;2.93;1.97;;;15.00;99.90;;;16.03;100.00;99203.28;4924583;29;20469;-78
2022/07/09 06:02:20;;;;;;;7.00;2.40;;;15.10;99.90;;;16.06;100.00;99203.72;4925242;29;20501;-78
2022/07/09 06:04:49;;;;;;;3.30;2.90;;;15.10;99.90;;;16.11;100.00;99195.22;4926252;29;20486;-79
2022/07/09 06:07:21;;;;;;;2.43;2.20;;;15.20;99.90;;;16.17;100.00;99194.44;4932152;29;21191;-78
2022/07/09 06:09:58;;;;;;;8.70;2.30;;;15.30;99.90;;;16.20;100.00;99188.78;4932722;29;20466;-79
2022/07/09 06:12:27;;;;;;;1.90;1.73;;;15.40;99.90;;;16.25;100.00;99199.56;4916115;29;20561;-79
2022/07/09 06:14:56;;;;;;;5.33;2.20;;;15.50;99.90;;;16.28;100.00;99193.88;4931329;29;20521;-79
2022/07/09 06:17:25;;;;;;;2.40;2.20;;;15.50;99.90;;;16.33;100.00;99193.31;4930495;29;20466;-79
2022/07/09 06:19:55;;;;;;;6.80;2.10;;;15.50;99.90;;;16.38;100.00;99199.63;4933056;29;20645;-79
2022/07/09 06:22:27;;;;;;;3.30;2.00;;;15.50;99.90;;;16.43;100.00;99194.56;4930410;29;20525;-79
2022/07/09 06:24:56;;;;;;;4.77;2.70;;;15.60;99.90;;;16.49;100.00;99188.50;4928893;29;20497;-78
2022/07/09 06:27:29;;;;;;;2.97;1.73;;;15.60;99.90;;;16.55;100.00;99198.34;4931565;29;20462;-79
2022/07/09 06:29:59;;;;;;;7.03;2.27;;;15.70;99.90;;;16.63;100.00;99193.88;4930805;29;21004;-78
2022/07/09 06:32:29;;;;;;;2.07;1.83;;;15.80;99.90;;;16.70;100.00;99197.34;4912635;29;20462;-78
2022/07/09 06:34:59;;;;;;;18.33;7.23;;;15.90;99.90;;;16.75;100.00;99192.31;4928336;29;20465;-78
2022/07/09 06:37:31;;;;;;;7.60;4.13;;;16.00;99.90;;;16.83;100.00;99195.59;4929784;29;20965;-78
2022/07/09 06:40:00;;;;;;;3.70;2.13;;;16.00;99.90;;;16.91;100.00;99181.38;4928871;29;20494;-79
2022/07/09 06:42:30;;;;;;;5.67;2.30;;;16.10;99.90;;;16.98;100.00;99198.06;4928997;29;20522;-78
2022/07/09 06:45:04;;;;;;;2.93;1.80;;;16.20;99.90;;;17.06;100.00;99188.13;4930580;29;20494;-79
2022/07/09 06:47:33;;;;;;;5.53;3.40;;;16.40;99.90;;;17.13;100.00;99188.13;4927625;29;20466;-79
2022/07/09 06:50:03;;;;;;;4.17;2.80;;;16.50;99.90;;;17.23;100.00;99191.19;4929640;29;20517;-79
2022/07/09 06:52:34;;;;;;;3.27;2.53;;;16.60;99.90;;;17.31;100.00;99192.84;4931774;29;21129;-79
2022/07/09 06:55:05;;;;;;;4.43;3.63;;;16.60;99.90;;;17.38;100.00;99194.50;4929619;29;20470;-79
2022/07/09 06:57:36;;;;;;;5.50;2.90;;;16.70;99.90;;;17.48;100.00;99197.53;4929503;29;20470;-79
2022/07/09 07:00:08;;;;;;;4.93;3.23;;;16.70;99.90;;;17.56;100.00;99186.78;4928604;29;20466;-79
2022/07/09 07:02:38;;;;;;;4.53;2.90;;;16.80;99.90;;;17.64;100.00;99192.88;4927724;29;21020;-79
2022/07/09 07:05:08;;;;;;;3.63;1.93;;;17.00;99.90;;;17.72;100.00;99190.03;4928492;29;20498;-79
2022/07/09 07:07:48;;;;;;;14.03;8.70;;;17.00;99.90;;;17.81;100.00;99188.81;4928717;29;20501;-80
2022/07/09 07:10:18;;;;;;;39.17;22.20;;;17.10;99.90;;;17.90;100.00;99187.59;4929205;29;20482;-79
2022/07/09 07:12:51;;;;;;;6.07;2.80;;;17.20;99.90;;;17.98;100.00;99195.28;4926667;29;20521;-79
2022/07/09 07:15:19;;;;;;;3.40;2.20;;;17.40;99.90;;;18.08;100.00;99193.84;4928082;29;20474;-79
2022/07/09 07:17:49;;;;;;;2.73;2.00;;;17.40;99.90;;;18.16;100.00;99184.88;4927321;29;20876;-80
2022/07/09 07:20:25;;;;;;;3.93;1.63;;;17.50;99.90;;;18.28;100.00;99185.88;4927154;29;20486;-80
2022/07/09 07:22:56;;;;;;;3.67;1.70;;;17.60;99.90;;;18.40;100.00;99178.91;4929808;29;20467;-79
2022/07/09 07:25:27;;;;;;;2.30;2.10;;;17.70;99.90;;;18.50;100.00;99189.91;4928465;29;20553;-79
2022/07/09 07:27:58;;;;;;;3.10;1.70;;;17.80;99.90;;;18.65;100.00;99178.22;4929571;29;20453;-79
2022/07/09 07:30:28;;;;;;;2.67;2.10;;;18.10;99.90;;;18.77;100.00;99174.72;4928606;29;20522;-79
2022/07/09 07:32:58;;;;;;;8.60;4.37;;;18.10;99.90;;;18.92;100.00;99175.22;4929325;29;20463;-79
2022/07/09 07:35:28;;;;;;;7.57;2.30;;;18.30;99.90;;;19.04;100.00;99183.34;4928600;29;20518;-79
2022/07/09 07:37:58;;;;;;;1.77;1.50;;;18.50;99.90;;;19.13;100.00;99174.09;4926986;29;20825;-79
2022/07/09 07:40:27;;;;;;;9.23;5.00;;;18.50;99.90;;;19.24;100.00;99175.25;4926461;29;20458;-81
2022/07/09 07:42:58;;;;;;;8.30;4.40;;;18.60;99.90;;;19.35;100.00;99171.91;4928728;29;20470;-78
2022/07/09 07:45:27;;;;;;;10.77;3.03;;;18.70;99.50;;;19.46;100.00;99166.75;4926106;29;20506;-79
2022/07/09 07:47:57;;;;;;;3.47;1.97;;;18.80;99.30;;;19.54;100.00;99171.75;4929199;29;20446;-79
2022/07/09 07:50:28;;;;;;;4.60;2.17;;;18.90;99.50;;;19.64;100.00;99171.31;4930732;29;20549;-79
2022/07/09 07:52:59;;;;;;;3.17;2.00;;;19.00;99.60;;;19.76;100.00;99179.34;4930305;29;20467;-79
2022/07/09 07:55:30;;;;;;;2.80;1.47;;;19.20;99.50;;;19.82;100.00;99178.50;4929819;29;20510;-79
2022/07/09 07:58:00;;;;;;;3.63;2.00;;;19.20;99.20;;;19.88;98.41;99173.13;4930100;29;20952;-79
2022/07/09 08:00:33;;;;;;;17.13;1.67;;;19.20;98.60;;;19.98;99.80;99177.94;4928518;29;20577;-79
2022/07/09 08:03:04;;;;;;;4.23;1.90;;;19.30;98.90;;;20.02;99.05;99173.81;4931038;29;20463;-79
2022/07/09 08:05:35;;;;;;;6.73;2.20;;;19.40;98.50;;;20.07;97.07;99171.28;4926674;29;21265;-79
2022/07/09 08:08:07;;;;;;;38.50;15.23;;;19.40;98.30;;;20.10;96.94;99170.84;4926976;29;20471;-79
2022/07/09 08:10:35;;;;;;;5.87;3.23;;;19.50;98.20;;;20.18;96.70;99177.72;4926594;29;20888;-79
2022/07/09 08:13:05;;;;;;;2.10;1.70;;;19.60;98.20;;;20.24;96.74;99171.50;4927136;29;20522;-79
2022/07/09 08:15:35;;;;;;;4.13;1.80;;;19.60;98.20;;;20.29;96.16;99164.56;4928594;29;20455;-79
2022/07/09 08:18:08;;;;;;;3.70;1.77;;;19.60;98.00;;;20.33;94.59;99165.72;4930672;29;20446;-79
2022/07/09 08:20:37;;;;;;;5.20;2.23;;;19.70;97.70;;;20.37;92.94;99160.78;4931334;29;21111;-79
2022/07/09 08:23:10;;;;;;;3.50;2.10;;;19.70;97.70;;;20.38;91.71;99157.88;4930191;29;20458;-79
2022/07/09 08:25:39;;;;;;;3.70;2.10;;;19.80;97.40;;;20.46;92.85;99159.44;4929844;29;20496;-79
2022/07/09 08:28:12;;;;;;;2.93;1.90;;;19.80;97.70;;;20.52;92.58;99158.53;4929199;29;20447;-79
2022/07/09 08:30:41;;;;;;;4.07;2.20;;;19.80;97.50;;;20.52;92.17;99159.34;4931620;29;20490;-79
2022/07/09 08:33:12;;;;;;;5.60;2.07;;;19.90;97.50;;;20.51;90.94;99151.63;4928500;29;20529;-79
2022/07/09 08:35:43;;;;;;;5.37;1.90;;;19.80;97.10;;;20.53;90.01;99160.16;4930599;29;20458;-79
2022/07/09 08:38:14;;;;;;;2.63;1.90;;;19.90;97.30;;;20.54;89.30;99159.97;4930227;29;20471;-79
2022/07/09 08:40:45;;;;;;;4.13;2.00;;;19.90;96.90;;;20.57;89.12;99154.19;4930700;29;20463;-79
2022/07/09 08:43:18;;;;;;;1.60;1.50;;;20.00;97.00;;;20.65;89.58;99152.25;4928734;29;20829;-79
2022/07/09 08:45:51;;;;;;;5.50;1.70;;;20.10;97.10;;;20.70;89.63;99139.91;4930097;29;20538;-79
2022/07/09 08:48:20;;;;;;;2.30;1.70;;;20.00;97.10;;;20.77;89.55;99143.28;4928893;29;20469;-79
2022/07/09 08:50:52;;;;;;;6.93;2.23;;;20.10;97.00;;;20.81;89.54;99136.50;4929254;29;20459;-79
2022/07/09 08:53:24;;;;;;;4.07;2.20;;;20.10;97.00;;;20.85;89.12;99129.69;4928173;29;20953;-79
2022/07/09 08:55:53;;;;;;;7.70;1.80;;;20.20;97.10;;;20.91;88.94;99146.56;4929269;29;20575;-79
2022/07/09 08:58:24;;;;;;;3.27;1.83;;;20.20;97.00;;;20.93;87.54;99147.19;4929953;29;20462;-79
2022/07/09 09:00:53;;;;;;;6.23;2.10;;;20.40;96.60;;;20.93;86.69;99147.19;4929168;29;20478;-79
2022/07/09 09:03:22;;;;;;;3.00;1.70;;;20.30;96.30;;;20.98;86.95;99144.63;4929018;29;20484;-79
2022/07/09 09:06:04;;;;;;;2.90;1.80;;;20.30;96.60;;;21.04;88.09;99141.06;4929513;29;20489;-79
2022/07/09 09:08:41;;;;;;;8.50;1.80;;;20.30;96.90;;;21.06;87.76;99137.16;4929611;29;20463;-79
2022/07/09 09:11:16;;;;;;;3.37;1.77;;;20.40;96.90;;;21.13;87.58;99130.94;4927980;29;21064;-79
2022/07/09 09:13:49;;;;;;;2.27;1.77;;;20.40;96.80;;;21.16;87.25;99131.31;4929417;29;20533;-79
2022/07/09 09:16:22;;;;;;;4.27;1.40;;;20.50;96.70;;;21.22;86.77;99132.22;4926738;29;20450;-79
2022/07/09 09:18:55;;;;;;;3.00;2.00;;;20.60;96.50;;;21.19;82.46;99136.16;4931012;29;20443;-79
2022/07/09 09:21:27;;;;;;;4.07;1.40;;;20.50;95.50;;;21.23;82.35;99140.00;4928695;29;20478;-79
2022/07/09 09:23:59;;;;;;;4.63;1.63;;;20.70;95.50;;;21.29;82.45;99133.75;4929481;29;20458;-78
2022/07/09 09:26:29;;;;;;;2.53;1.80;;;20.70;95.60;;;21.36;82.80;99138.97;4928840;29;20973;-79
2022/07/09 09:29:07;;;;;;;4.73;1.90;;;20.70;95.40;;;21.38;80.99;99127.03;4928776;29;20443;-79
2022/07/09 09:31:38;;;;;;;2.53;1.73;;;20.70;95.20;;;21.46;81.66;99128.56;4929082;29;20533;-79
2022/07/09 09:34:15;;;;;;;1.50;1.30;;;20.90;95.50;;;21.55;81.71;99130.63;4943584;28;20499;-79
2022/07/09 09:36:46;;;;;;;7.03;1.60;;;21.00;95.50;;;21.61;81.65;99133.44;4929662;29;20538;-79
2022/07/09 09:39:19;;;;;;;3.50;1.60;;;21.00;95.60;;;21.68;82.42;99142.13;4928283;29;20463;-79
2022/07/09 09:41:52;;;;;;;2.10;1.30;;;21.00;95.70;;;21.73;81.52;99132.38;4929428;29;20435;-78
2022/07/09 09:44:25;;;;;;;2.07;1.53;;;21.10;95.50;;;21.74;80.26;99133.19;4929196;29;20461;-79
2022/07/09 09:46:56;;;;;;;3.50;1.70;;;21.10;95.20;;;21.78;79.42;99134.38;4930434;29;20537;-79
2022/07/09 09:49:26;;;;;;;1.80;1.23;;;21.20;95.00;;;21.79;78.91;99139.47;4928061;29;20462;-79
2022/07/09 09:52:03;;;;;;;2.10;1.40;;;21.30;94.80;;;21.82;79.65;99130.19;4929189;29;20831;-79
2022/07/09 09:54:36;;;;;;;5.07;1.60;;;21.30;95.00;;;21.86;79.32;99128.69;4928165;29;21305;-79
2022/07/09 09:57:10;;;;;;;1.40;1.20;;;21.20;94.90;;;21.88;78.70;99115.94;4929751;29;20493;-79
2022/07/09 09:59:42;;;;;;;2.20;1.50;;;21.20;94.90;;;21.91;78.32;99126.16;4928347;29;20517;-79
2022/07/09 10:02:12;;;;;;;2.10;1.53;;;21.20;94.80;;;21.94;78.53;99123.03;4929757;29;20455;-79
2022/07/09 10:04:44;;;;;;;3.50;1.87;;;21.30;95.00;;;21.92;77.50;99112.63;4929695;29;20458;-79
2022/07/09 10:07:17;;;;;;;1.60;1.40;;;21.20;94.70;;;21.92;76.58;99123.28;4931365;29;20893;-79
2022/07/09 10:09:58;;;;;;;5.67;1.37;;;21.30;94.40;;;21.92;74.11;99109.13;4928075;29;20857;-79
2022/07/09 10:12:29;;;;;;;3.60;1.57;;;21.40;93.80;;;21.91;71.60;99099.50;4929247;29;20489;-79
2022/07/09 10:14:59;;;;;;;2.00;1.20;;;21.30;93.00;;;21.93;70.01;99098.25;4928769;29;20499;-79
2022/07/09 10:17:29;;;;;;;2.00;1.30;;;21.40;92.80;;;21.94;70.67;99096.38;4927975;29;20458;-79
2022/07/09 10:20:03;;;;;;;4.43;1.40;;;21.40;93.10;;;21.93;71.22;99092.94;4929550;29;20574;-78
2022/07/09 10:22:38;;;;;;;1.20;1.10;;;21.30;93.40;;;22.01;71.25;99089.06;4929287;29;20458;-79
2022/07/09 10:25:10;;;;;;;2.50;1.37;;;21.40;93.40;;;22.06;69.47;99089.19;4928471;29;20442;-79
2022/07/09 10:27:46;;;;;;;1.47;1.20;;;21.40;92.80;;;22.11;68.48;99078.63;4928078;29;20501;-78